»·PEaware :: N2974N KLAX-KSAN

N2974N :: KLAX-KSAN

FLIGHT INFORMATION

Flight Status: Arrived
Operator: Privately registered:
United States
More flights under this callsign
Pilot: Lance R. (20174)
Aircraft: PIPER PA-28 CHEROKEE ARCHER
(PA28)
More flights by this aircraft type
Origin: KLAX Los Angeles Intl
United States
Destination: KSAN San Diego Intl-Lindbergh
United States
More flights between these airports :: More routes between these airports
Route: DIRECT
File this flight plan on PilotEdge
Remarks: CAT 11 RATING ATTEMPT
Altitude:
(Current/Filed)
7,500ft
Speed:
(Current/Filed)
120kts
Departed: 06-Dec-18 09:30 PM
Arrived: 06-Dec-18 10:22 PM
Distance/Time
Traveled:
95nm/0:52
Distance/Time
To Go:
Arrived

Flight Plot

Page will automatically refresh every two minutes.


Map Options




Map Legend


Flown Route
Filed Route
Departure Airport
Arrival Airport
Navaid (VOR, NDB)
Fix

Horizontal Profiles

Position Reports

Time Latitude Longitude Heading Altitude Ground
Speed
06-Dec-18 21:18 33.942189 -118.384243 314 130ft 0kts
06-Dec-18 21:19 33.942189 -118.384243 314 130ft 0kts
06-Dec-18 21:20 33.942189 -118.384243 314 130ft 0kts
06-Dec-18 21:21 33.942189 -118.384243 314 130ft 0kts
06-Dec-18 21:22 33.942189 -118.384243 314 130ft 0kts
06-Dec-18 21:23 33.941800 -118.383566 150 130ft 0kts
06-Dec-18 21:24 33.940659 -118.383206 130 130ft 10kts
06-Dec-18 21:25 33.940651 -118.380545 126 130ft 0kts
06-Dec-18 21:26 33.940651 -118.380545 126 130ft 0kts
06-Dec-18 21:27 33.940651 -118.380545 126 130ft 0kts
06-Dec-18 21:28 33.939693 -118.381492 263 130ft 37kts
06-Dec-18 21:29 33.936329 -118.412037 260 767ft 104kts
06-Dec-18 21:30 33.933225 -118.447162 266 1677ft 108kts
06-Dec-18 21:31 33.913954 -118.470793 203 2552ft 111kts
06-Dec-18 21:32 33.883580 -118.485525 203 2993ft 135kts
06-Dec-18 21:33 33.847667 -118.503137 203 2989ft 134kts
06-Dec-18 21:34 33.813677 -118.519864 203 2990ft 131kts
06-Dec-18 21:35 33.782465 -118.513594 133 2991ft 130kts
06-Dec-18 21:36 33.757587 -118.482056 135 3065ft 128kts
06-Dec-18 21:37 33.732546 -118.452240 133 3580ft 128kts
06-Dec-18 21:38 33.706282 -118.420948 133 3321ft 142kts
06-Dec-18 21:39 33.679974 -118.386988 129 3490ft 141kts
06-Dec-18 21:40 33.654102 -118.351468 130 3487ft 137kts
06-Dec-18 21:41 33.629866 -118.317308 129 3490ft 132kts
06-Dec-18 21:42 33.606175 -118.283776 129 3515ft 131kts
06-Dec-18 21:43 33.582294 -118.250642 129 3517ft 130kts
06-Dec-18 21:44 33.558270 -118.218497 129 3515ft 128kts
06-Dec-18 21:45 33.534276 -118.186937 129 3513ft 128kts
06-Dec-18 21:46 33.509991 -118.155352 128 3509ft 128kts
06-Dec-18 21:47 33.486055 -118.124248 129 3508ft 126kts
06-Dec-18 21:48 33.462486 -118.093858 129 3505ft 123kts
06-Dec-18 21:49 33.439385 -118.064059 129 3503ft 122kts
06-Dec-18 21:50 33.416539 -118.034159 130 3502ft 120kts
06-Dec-18 21:51 33.393941 -118.004512 129 3502ft 120kts
06-Dec-18 21:52 33.371331 -117.974796 128 3503ft 120kts
06-Dec-18 21:53 33.348623 -117.945058 129 3503ft 122kts
06-Dec-18 21:54 33.325553 -117.915064 129 3500ft 122kts
06-Dec-18 21:55 33.302267 -117.885212 129 3501ft 123kts
06-Dec-18 21:56 33.278399 -117.855143 129 3500ft 125kts
06-Dec-18 21:57 33.254090 -117.824949 129 3499ft 126kts
06-Dec-18 21:58 33.229716 -117.794739 129 3499ft 126kts
06-Dec-18 21:59 33.205333 -117.764526 129 3499ft 126kts
06-Dec-18 22:00 33.180728 -117.733991 129 3453ft 127kts
06-Dec-18 22:01 33.156208 -117.703603 129 3453ft 126kts
06-Dec-18 22:02 33.133721 -117.671750 116 3453ft 124kts
06-Dec-18 22:03 33.121911 -117.633821 100 3453ft 122kts
06-Dec-18 22:04 33.113348 -117.594408 105 3453ft 123kts
06-Dec-18 22:05 33.102166 -117.555416 105 3455ft 126kts
06-Dec-18 22:06 33.090144 -117.514831 105 3459ft 136kts
06-Dec-18 22:07 33.078232 -117.471536 106 3459ft 138kts
06-Dec-18 22:08 33.062237 -117.429517 114 3461ft 138kts
06-Dec-18 22:09 33.039321 -117.395095 148 3462ft 135kts
06-Dec-18 22:10 33.007915 -117.371028 149 3463ft 133kts
06-Dec-18 22:11 32.976868 -117.347228 149 3462ft 132kts
06-Dec-18 22:12 32.946174 -117.323622 149 3461ft 130kts
06-Dec-18 22:13 32.916155 -117.300549 149 3460ft 127kts
06-Dec-18 22:14 32.886257 -117.278315 149 3462ft 127kts
06-Dec-18 22:15 32.856704 -117.255281 150 2766ft 121kts
06-Dec-18 22:16 32.825126 -117.240191 167 1845ft 123kts
06-Dec-18 22:17 32.791345 -117.232276 167 963ft 127kts
06-Dec-18 22:18 32.758904 -117.235000 185 641ft 89kts
06-Dec-18 22:19 32.742572 -117.226819 103 234ft 75kts
06-Dec-18 22:20 32.737298 -117.205188 101 79ft 62kts
06-Dec-18 22:21 32.734315 -117.190988 34 22ft 14kts
06-Dec-18 22:22 32.734847 -117.190115 98 22ft 13kts
06-Dec-18 22:23 32.734011 -117.186612 108 22ft 9kts
06-Dec-18 22:24 32.732873 -117.182029 104 22ft 17kts
06-Dec-18 22:25 32.731243 -117.176102 109 22ft 18kts
06-Dec-18 22:26 32.732224 -117.176292 247 22ft 0kts

Navigation Log

Ident Type
Flight plan parsing failed, navigation log unavailable